sensor_id;sensor_type;location;lat;lon;timestamp;P1;durP1;ratioP1;P2;durP2;ratioP2
20040;SDS011;10181;48.072;9.884;2023-07-28T00:00:42;3.50;;;3.20;;
20040;SDS011;10181;48.072;9.884;2023-07-28T00:03:09;3.30;;;3.10;;
20040;SDS011;10181;48.072;9.884;2023-07-28T00:05:35;3.10;;;2.90;;
20040;SDS011;10181;48.072;9.884;2023-07-28T00:08:01;3.33;;;3.13;;
20040;SDS011;10181;48.072;9.884;2023-07-28T00:10:27;3.10;;;2.90;;
20040;SDS011;10181;48.072;9.884;2023-07-28T00:12:53;3.20;;;3.00;;
20040;SDS011;10181;48.072;9.884;2023-07-28T00:15:18;3.93;;;3.30;;
20040;SDS011;10181;48.072;9.884;2023-07-28T00:17:44;3.13;;;2.93;;
20040;SDS011;10181;48.072;9.884;2023-07-28T00:20:10;2.93;;;2.73;;
20040;SDS011;10181;48.072;9.884;2023-07-28T00:22:36;3.13;;;2.93;;
20040;SDS011;10181;48.072;9.884;2023-07-28T00:25:02;3.53;;;3.33;;
20040;SDS011;10181;48.072;9.884;2023-07-28T00:27:28;3.87;;;3.57;;
20040;SDS011;10181;48.072;9.884;2023-07-28T00:29:53;3.20;;;2.83;;
20040;SDS011;10181;48.072;9.884;2023-07-28T00:32:19;3.03;;;2.83;;
20040;SDS011;10181;48.072;9.884;2023-07-28T00:34:44;3.50;;;3.27;;
20040;SDS011;10181;48.072;9.884;2023-07-28T00:37:10;3.27;;;3.07;;
20040;SDS011;10181;48.072;9.884;2023-07-28T00:39:36;3.37;;;3.10;;
20040;SDS011;10181;48.072;9.884;2023-07-28T00:42:01;4.37;;;3.63;;
20040;SDS011;10181;48.072;9.884;2023-07-28T00:44:27;3.63;;;3.40;;
20040;SDS011;10181;48.072;9.884;2023-07-28T00:46:53;3.57;;;3.27;;
20040;SDS011;10181;48.072;9.884;2023-07-28T00:49:18;3.47;;;3.27;;
20040;SDS011;10181;48.072;9.884;2023-07-28T00:51:44;3.47;;;3.17;;
20040;SDS011;10181;48.072;9.884;2023-07-28T00:54:10;2.80;;;2.70;;
20040;SDS011;10181;48.072;9.884;2023-07-28T00:56:37;2.73;;;2.53;;
20040;SDS011;10181;48.072;9.884;2023-07-28T00:59:02;2.67;;;2.50;;
20040;SDS011;10181;48.072;9.884;2023-07-28T01:01:28;2.77;;;2.60;;
20040;SDS011;10181;48.072;9.884;2023-07-28T01:03:54;3.30;;;3.10;;
20040;SDS011;10181;48.072;9.884;2023-07-28T01:09:11;2.87;;;2.67;;
20040;SDS011;10181;48.072;9.884;2023-07-28T01:14:20;2.80;;;2.60;;
20040;SDS011;10181;48.072;9.884;2023-07-28T01:16:45;3.40;;;3.20;;
20040;SDS011;10181;48.072;9.884;2023-07-28T01:19:11;3.17;;;2.97;;
20040;SDS011;10181;48.072;9.884;2023-07-28T01:21:37;2.77;;;2.67;;
20040;SDS011;10181;48.072;9.884;2023-07-28T01:26:59;2.60;;;2.47;;
20040;SDS011;10181;48.072;9.884;2023-07-28T01:29:26;3.63;;;3.40;;
20040;SDS011;10181;48.072;9.884;2023-07-28T01:31:51;3.20;;;3.00;;
20040;SDS011;10181;48.072;9.884;2023-07-28T01:34:17;3.30;;;3.10;;
20040;SDS011;10181;48.072;9.884;2023-07-28T01:36:43;2.20;;;2.10;;
20040;SDS011;10181;48.072;9.884;2023-07-28T01:39:08;3.03;;;2.83;;
20040;SDS011;10181;48.072;9.884;2023-07-28T01:41:34;3.80;;;3.40;;
20040;SDS011;10181;48.072;9.884;2023-07-28T01:44:00;3.70;;;3.40;;
20040;SDS011;10181;48.072;9.884;2023-07-28T01:46:25;3.77;;;3.40;;
20040;SDS011;10181;48.072;9.884;2023-07-28T01:48:51;3.60;;;3.40;;
20040;SDS011;10181;48.072;9.884;2023-07-28T01:51:16;3.03;;;2.83;;
20040;SDS011;10181;48.072;9.884;2023-07-28T01:53:42;3.10;;;2.90;;
20040;SDS011;10181;48.072;9.884;2023-07-28T01:56:08;3.93;;;3.63;;
20040;SDS011;10181;48.072;9.884;2023-07-28T01:58:34;3.00;;;2.80;;
20040;SDS011;10181;48.072;9.884;2023-07-28T02:00:59;3.10;;;2.90;;
20040;SDS011;10181;48.072;9.884;2023-07-28T02:03:25;2.87;;;2.67;;
20040;SDS011;10181;48.072;9.884;2023-07-28T02:05:50;3.03;;;2.83;;
20040;SDS011;10181;48.072;9.884;2023-07-28T02:08:17;3.10;;;2.90;;
20040;SDS011;10181;48.072;9.884;2023-07-28T02:10:44;3.07;;;2.87;;
20040;SDS011;10181;48.072;9.884;2023-07-28T02:13:09;2.80;;;2.70;;
20040;SDS011;10181;48.072;9.884;2023-07-28T02:15:35;2.97;;;2.77;;
20040;SDS011;10181;48.072;9.884;2023-07-28T02:18:01;3.17;;;2.97;;
20040;SDS011;10181;48.072;9.884;2023-07-28T02:20:26;2.80;;;2.60;;
20040;SDS011;10181;48.072;9.884;2023-07-28T02:22:52;2.57;;;2.47;;
20040;SDS011;10181;48.072;9.884;2023-07-28T02:25:17;3.10;;;2.90;;
20040;SDS011;10181;48.072;9.884;2023-07-28T02:27:43;4.03;;;3.30;;
20040;SDS011;10181;48.072;9.884;2023-07-28T02:30:09;3.23;;;3.03;;
20040;SDS011;10181;48.072;9.884;2023-07-28T02:32:35;3.00;;;2.80;;
20040;SDS011;10181;48.072;9.884;2023-07-28T02:35:01;2.83;;;2.63;;
20040;SDS011;10181;48.072;9.884;2023-07-28T02:37:27;3.10;;;2.90;;
20040;SDS011;10181;48.072;9.884;2023-07-28T02:39:53;2.90;;;2.70;;
20040;SDS011;10181;48.072;9.884;2023-07-28T02:42:18;3.00;;;2.80;;
20040;SDS011;10181;48.072;9.884;2023-07-28T02:44:44;3.10;;;2.90;;
20040;SDS011;10181;48.072;9.884;2023-07-28T02:47:09;3.30;;;3.10;;
20040;SDS011;10181;48.072;9.884;2023-07-28T02:49:35;3.03;;;2.83;;
20040;SDS011;10181;48.072;9.884;2023-07-28T02:52:01;3.30;;;3.10;;
20040;SDS011;10181;48.072;9.884;2023-07-28T02:54:28;2.70;;;2.60;;
20040;SDS011;10181;48.072;9.884;2023-07-28T02:56:53;2.83;;;2.63;;
20040;SDS011;10181;48.072;9.884;2023-07-28T02:59:19;2.83;;;2.63;;
20040;SDS011;10181;48.072;9.884;2023-07-28T03:01:46;2.77;;;2.60;;
20040;SDS011;10181;48.072;9.884;2023-07-28T03:04:11;2.80;;;2.60;;
20040;SDS011;10181;48.072;9.884;2023-07-28T03:06:37;3.60;;;3.30;;
20040;SDS011;10181;48.072;9.884;2023-07-28T03:09:02;3.10;;;2.90;;
20040;SDS011;10181;48.072;9.884;2023-07-28T03:11:28;3.00;;;2.80;;
20040;SDS011;10181;48.072;9.884;2023-07-28T03:13:54;3.40;;;3.20;;
20040;SDS011;10181;48.072;9.884;2023-07-28T03:16:19;3.13;;;2.93;;
20040;SDS011;10181;48.072;9.884;2023-07-28T03:18:45;3.27;;;2.70;;
20040;SDS011;10181;48.072;9.884;2023-07-28T03:21:11;2.70;;;2.50;;
20040;SDS011;10181;48.072;9.884;2023-07-28T03:23:36;3.10;;;2.90;;
20040;SDS011;10181;48.072;9.884;2023-07-28T03:26:02;2.97;;;2.83;;
20040;SDS011;10181;48.072;9.884;2023-07-28T03:28:27;2.90;;;2.77;;
20040;SDS011;10181;48.072;9.884;2023-07-28T03:30:53;3.40;;;3.20;;
20040;SDS011;10181;48.072;9.884;2023-07-28T03:33:18;3.87;;;3.60;;
20040;SDS011;10181;48.072;9.884;2023-07-28T03:35:44;3.10;;;2.90;;
20040;SDS011;10181;48.072;9.884;2023-07-28T03:38:10;3.30;;;3.10;;
20040;SDS011;10181;48.072;9.884;2023-07-28T03:40:36;3.33;;;3.13;;
20040;SDS011;10181;48.072;9.884;2023-07-28T03:43:01;3.67;;;3.40;;
20040;SDS011;10181;48.072;9.884;2023-07-28T03:45:27;3.93;;;3.63;;
20040;SDS011;10181;48.072;9.884;2023-07-28T03:47:53;3.43;;;3.23;;
20040;SDS011;10181;48.072;9.884;2023-07-28T03:50:19;3.70;;;3.40;;
20040;SDS011;10181;48.072;9.884;2023-07-28T03:52:45;3.50;;;3.30;;
20040;SDS011;10181;48.072;9.884;2023-07-28T03:55:10;3.10;;;2.90;;
20040;SDS011;10181;48.072;9.884;2023-07-28T03:57:36;3.30;;;3.00;;
20040;SDS011;10181;48.072;9.884;2023-07-28T04:00:02;2.70;;;2.50;;
20040;SDS011;10181;48.072;9.884;2023-07-28T04:02:27;3.13;;;2.93;;
20040;SDS011;10181;48.072;9.884;2023-07-28T04:04:54;3.27;;;3.07;;
20040;SDS011;10181;48.072;9.884;2023-07-28T04:07:20;3.13;;;2.93;;
20040;SDS011;10181;48.072;9.884;2023-07-28T04:09:45;3.37;;;3.07;;
20040;SDS011;10181;48.072;9.884;2023-07-28T04:12:11;2.83;;;2.63;;
20040;SDS011;10181;48.072;9.884;2023-07-28T04:14:37;3.33;;;3.13;;
20040;SDS011;10181;48.072;9.884;2023-07-28T04:17:02;3.27;;;2.97;;
20040;SDS011;10181;48.072;9.884;2023-07-28T04:19:28;3.20;;;2.90;;
20040;SDS011;10181;48.072;9.884;2023-07-28T04:21:55;3.10;;;2.90;;
20040;SDS011;10181;48.072;9.884;2023-07-28T04:24:21;3.00;;;2.80;;
20040;SDS011;10181;48.072;9.884;2023-07-28T04:26:47;3.60;;;3.30;;
20040;SDS011;10181;48.072;9.884;2023-07-28T04:29:14;3.43;;;3.17;;
20040;SDS011;10181;48.072;9.884;2023-07-28T04:31:39;3.37;;;3.07;;
20040;SDS011;10181;48.072;9.884;2023-07-28T04:34:05;3.53;;;3.33;;
20040;SDS011;10181;48.072;9.884;2023-07-28T04:36:30;3.33;;;3.13;;
20040;SDS011;10181;48.072;9.884;2023-07-28T04:38:56;5.00;;;3.00;;
20040;SDS011;10181;48.072;9.884;2023-07-28T04:41:22;3.20;;;3.00;;
20040;SDS011;10181;48.072;9.884;2023-07-28T04:43:47;3.30;;;3.10;;
20040;SDS011;10181;48.072;9.884;2023-07-28T04:46:13;2.70;;;2.60;;
20040;SDS011;10181;48.072;9.884;2023-07-28T04:48:38;2.93;;;2.73;;
20040;SDS011;10181;48.072;9.884;2023-07-28T04:51:04;3.10;;;2.90;;
20040;SDS011;10181;48.072;9.884;2023-07-28T04:53:30;3.10;;;2.90;;
20040;SDS011;10181;48.072;9.884;2023-07-28T04:55:55;3.50;;;3.27;;
20040;SDS011;10181;48.072;9.884;2023-07-28T04:58:21;3.37;;;2.70;;
20040;SDS011;10181;48.072;9.884;2023-07-28T05:00:46;3.37;;;3.07;;
20040;SDS011;10181;48.072;9.884;2023-07-28T05:03:12;3.37;;;3.17;;
20040;SDS011;10181;48.072;9.884;2023-07-28T05:05:38;4.63;;;3.27;;
20040;SDS011;10181;48.072;9.884;2023-07-28T05:08:03;3.23;;;2.83;;
20040;SDS011;10181;48.072;9.884;2023-07-28T05:10:29;2.83;;;2.63;;
20040;SDS011;10181;48.072;9.884;2023-07-28T05:12:55;3.07;;;2.83;;
20040;SDS011;10181;48.072;9.884;2023-07-28T05:15:21;3.30;;;2.87;;
20040;SDS011;10181;48.072;9.884;2023-07-28T05:17:48;3.30;;;3.10;;
20040;SDS011;10181;48.072;9.884;2023-07-28T05:20:14;6.77;;;3.20;;
20040;SDS011;10181;48.072;9.884;2023-07-28T05:22:41;2.63;;;2.53;;
20040;SDS011;10181;48.072;9.884;2023-07-28T05:25:06;3.10;;;2.90;;
20040;SDS011;10181;48.072;9.884;2023-07-28T05:27:32;4.23;;;2.70;;
20040;SDS011;10181;48.072;9.884;2023-07-28T05:29:58;2.73;;;2.63;;
20040;SDS011;10181;48.072;9.884;2023-07-28T05:32:24;2.90;;;2.70;;
20040;SDS011;10181;48.072;9.884;2023-07-28T05:34:49;2.73;;;2.47;;
20040;SDS011;10181;48.072;9.884;2023-07-28T05:37:15;2.63;;;2.53;;
20040;SDS011;10181;48.072;9.884;2023-07-28T05:39:41;2.90;;;2.70;;
20040;SDS011;10181;48.072;9.884;2023-07-28T05:42:06;3.10;;;2.90;;
20040;SDS011;10181;48.072;9.884;2023-07-28T05:44:32;2.87;;;2.67;;
20040;SDS011;10181;48.072;9.884;2023-07-28T05:46:58;3.03;;;2.80;;
20040;SDS011;10181;48.072;9.884;2023-07-28T05:49:24;3.20;;;2.90;;
20040;SDS011;10181;48.072;9.884;2023-07-28T05:51:49;3.10;;;2.90;;
20040;SDS011;10181;48.072;9.884;2023-07-28T05:54:15;2.90;;;2.70;;
20040;SDS011;10181;48.072;9.884;2023-07-28T05:56:41;2.77;;;2.57;;
20040;SDS011;10181;48.072;9.884;2023-07-28T05:59:07;2.43;;;2.33;;
20040;SDS011;10181;48.072;9.884;2023-07-28T06:01:33;3.20;;;2.80;;
20040;SDS011;10181;48.072;9.884;2023-07-28T06:03:59;2.83;;;2.63;;
20040;SDS011;10181;48.072;9.884;2023-07-28T06:06:25;3.97;;;2.63;;
20040;SDS011;10181;48.072;9.884;2023-07-28T06:08:52;2.90;;;2.70;;
20040;SDS011;10181;48.072;9.884;2023-07-28T06:11:18;3.13;;;2.93;;
20040;SDS011;10181;48.072;9.884;2023-07-28T06:13:44;2.90;;;2.70;;
20040;SDS011;10181;48.072;9.884;2023-07-28T06:16:11;2.87;;;2.73;;
20040;SDS011;10181;48.072;9.884;2023-07-28T06:18:37;2.93;;;2.70;;
20040;SDS011;10181;48.072;9.884;2023-07-28T06:21:03;4.17;;;3.47;;
20040;SDS011;10181;48.072;9.884;2023-07-28T06:23:29;2.70;;;2.50;;
20040;SDS011;10181;48.072;9.884;2023-07-28T06:25:55;3.23;;;2.97;;
20040;SDS011;10181;48.072;9.884;2023-07-28T06:28:21;2.37;;;2.27;;
20040;SDS011;10181;48.072;9.884;2023-07-28T06:30:47;4.00;;;2.40;;
20040;SDS011;10181;48.072;9.884;2023-07-28T06:33:17;2.60;;;2.40;;
20040;SDS011;10181;48.072;9.884;2023-07-28T06:35:43;2.60;;;2.50;;
20040;SDS011;10181;48.072;9.884;2023-07-28T06:38:09;3.33;;;2.53;;
20040;SDS011;10181;48.072;9.884;2023-07-28T06:40:34;2.40;;;2.30;;
20040;SDS011;10181;48.072;9.884;2023-07-28T06:43:01;2.80;;;2.60;;
20040;SDS011;10181;48.072;9.884;2023-07-28T06:45:26;2.97;;;2.67;;
20040;SDS011;10181;48.072;9.884;2023-07-28T06:47:52;2.30;;;2.20;;
20040;SDS011;10181;48.072;9.884;2023-07-28T06:50:18;2.73;;;2.60;;
20040;SDS011;10181;48.072;9.884;2023-07-28T06:52:45;2.50;;;2.40;;
20040;SDS011;10181;48.072;9.884;2023-07-28T06:55:12;2.85;;;2.65;;
20040;SDS011;10181;48.072;9.884;2023-07-28T06:57:39;2.67;;;2.47;;
20040;SDS011;10181;48.072;9.884;2023-07-28T07:00:05;2.97;;;2.67;;
20040;SDS011;10181;48.072;9.884;2023-07-28T07:02:34;2.58;;;2.38;;
20040;SDS011;10181;48.072;9.884;2023-07-28T07:05:00;2.60;;;2.40;;
20040;SDS011;10181;48.072;9.884;2023-07-28T07:07:25;2.70;;;2.50;;
20040;SDS011;10181;48.072;9.884;2023-07-28T07:09:51;2.67;;;2.58;;
20040;SDS011;10181;48.072;9.884;2023-07-28T07:12:17;2.50;;;2.40;;
20040;SDS011;10181;48.072;9.884;2023-07-28T07:14:44;2.65;;;2.50;;
20040;SDS011;10181;48.072;9.884;2023-07-28T07:17:09;2.50;;;2.35;;
20040;SDS011;10181;48.072;9.884;2023-07-28T07:19:35;2.00;;;1.80;;
20040;SDS011;10181;48.072;9.884;2023-07-28T07:22:01;2.92;;;2.63;;
20040;SDS011;10181;48.072;9.884;2023-07-28T07:24:27;2.28;;;2.17;;
20040;SDS011;10181;48.072;9.884;2023-07-28T07:26:52;2.53;;;2.42;;
20040;SDS011;10181;48.072;9.884;2023-07-28T07:29:18;2.25;;;2.15;;
20040;SDS011;10181;48.072;9.884;2023-07-28T07:31:43;2.50;;;2.30;;
20040;SDS011;10181;48.072;9.884;2023-07-28T07:34:09;2.78;;;2.47;;
20040;SDS011;10181;48.072;9.884;2023-07-28T07:36:35;2.60;;;2.40;;
20040;SDS011;10181;48.072;9.884;2023-07-28T07:39:00;3.45;;;2.33;;
20040;SDS011;10181;48.072;9.884;2023-07-28T07:41:26;2.75;;;2.58;;
20040;SDS011;10181;48.072;9.884;2023-07-28T07:43:52;2.47;;;2.28;;
20040;SDS011;10181;48.072;9.884;2023-07-28T07:46:19;2.50;;;2.30;;
20040;SDS011;10181;48.072;9.884;2023-07-28T07:48:45;2.40;;;2.30;;
20040;SDS011;10181;48.072;9.884;2023-07-28T07:51:11;2.00;;;1.90;;
20040;SDS011;10181;48.072;9.884;2023-07-28T07:53:37;2.17;;;2.08;;
20040;SDS011;10181;48.072;9.884;2023-07-28T07:56:03;1.85;;;1.75;;
20040;SDS011;10181;48.072;9.884;2023-07-28T07:58:29;1.77;;;1.73;;
20040;SDS011;10181;48.072;9.884;2023-07-28T08:00:55;2.30;;;2.20;;
20040;SDS011;10181;48.072;9.884;2023-07-28T08:03:21;2.00;;;1.90;;
20040;SDS011;10181;48.072;9.884;2023-07-28T08:05:47;1.77;;;1.67;;
20040;SDS011;10181;48.072;9.884;2023-07-28T08:08:12;1.90;;;1.80;;
20040;SDS011;10181;48.072;9.884;2023-07-28T08:10:42;2.10;;;2.00;;
20040;SDS011;10181;48.072;9.884;2023-07-28T08:13:12;3.00;;;2.28;;
20040;SDS011;10181;48.072;9.884;2023-07-28T08:15:38;2.10;;;2.00;;
20040;SDS011;10181;48.072;9.884;2023-07-28T08:18:03;2.20;;;2.10;;
20040;SDS011;10181;48.072;9.884;2023-07-28T08:20:29;2.58;;;2.10;;
20040;SDS011;10181;48.072;9.884;2023-07-28T08:22:55;2.17;;;1.90;;
20040;SDS011;10181;48.072;9.884;2023-07-28T08:25:20;2.35;;;2.25;;
20040;SDS011;10181;48.072;9.884;2023-07-28T08:27:47;2.03;;;1.92;;
20040;SDS011;10181;48.072;9.884;2023-07-28T08:30:13;2.08;;;1.98;;
20040;SDS011;10181;48.072;9.884;2023-07-28T08:32:40;2.20;;;2.10;;
20040;SDS011;10181;48.072;9.884;2023-07-28T08:35:08;3.13;;;2.10;;
20040;SDS011;10181;48.072;9.884;2023-07-28T08:37:34;2.03;;;1.92;;
20040;SDS011;10181;48.072;9.884;2023-07-28T08:40:00;2.25;;;1.90;;
20040;SDS011;10181;48.072;9.884;2023-07-28T08:42:28;2.10;;;2.00;;
20040;SDS011;10181;48.072;9.884;2023-07-28T08:44:55;2.10;;;2.00;;
20040;SDS011;10181;48.072;9.884;2023-07-28T08:47:20;2.17;;;2.08;;
20040;SDS011;10181;48.072;9.884;2023-07-28T08:49:46;2.13;;;1.90;;
20040;SDS011;10181;48.072;9.884;2023-07-28T08:52:31;2.35;;;2.15;;
20040;SDS011;10181;48.072;9.884;2023-07-28T08:54:57;2.30;;;2.20;;
20040;SDS011;10181;48.072;9.884;2023-07-28T08:57:23;1.98;;;1.88;;
20040;SDS011;10181;48.072;9.884;2023-07-28T08:59:48;2.28;;;2.17;;
20040;SDS011;10181;48.072;9.884;2023-07-28T09:02:15;2.20;;;2.10;;
20040;SDS011;10181;48.072;9.884;2023-07-28T09:04:44;2.10;;;2.00;;
20040;SDS011;10181;48.072;9.884;2023-07-28T09:07:11;2.97;;;2.40;;
20040;SDS011;10181;48.072;9.884;2023-07-28T09:09:37;2.28;;;2.17;;
20040;SDS011;10181;48.072;9.884;2023-07-28T09:12:03;2.10;;;2.00;;
20040;SDS011;10181;48.072;9.884;2023-07-28T09:14:29;1.83;;;1.73;;
20040;SDS011;10181;48.072;9.884;2023-07-28T09:16:56;2.17;;;2.08;;
20040;SDS011;10181;48.072;9.884;2023-07-28T09:19:34;3.45;;;2.33;;
20040;SDS011;10181;48.072;9.884;2023-07-28T09:22:13;2.40;;;2.15;;
20040;SDS011;10181;48.072;9.884;2023-07-28T09:24:39;2.55;;;2.35;;
20040;SDS011;10181;48.072;9.884;2023-07-28T09:27:04;2.13;;;2.03;;
20040;SDS011;10181;48.072;9.884;2023-07-28T09:29:30;2.42;;;2.33;;
20040;SDS011;10181;48.072;9.884;2023-07-28T09:32:03;2.50;;;2.33;;
20040;SDS011;10181;48.072;9.884;2023-07-28T09:34:30;2.65;;;2.45;;
20040;SDS011;10181;48.072;9.884;2023-07-28T09:36:57;3.63;;;3.28;;
20040;SDS011;10181;48.072;9.884;2023-07-28T09:39:24;3.13;;;2.92;;
20040;SDS011;10181;48.072;9.884;2023-07-28T09:41:50;2.83;;;2.63;;
20040;SDS011;10181;48.072;9.884;2023-07-28T09:44:16;2.20;;;2.10;;
20040;SDS011;10181;48.072;9.884;2023-07-28T09:49:28;2.80;;;2.53;;
20040;SDS011;10181;48.072;9.884;2023-07-28T09:52:00;2.35;;;2.25;;
20040;SDS011;10181;48.072;9.884;2023-07-28T09:54:30;2.10;;;2.00;;
20040;SDS011;10181;48.072;9.884;2023-07-28T09:56:58;2.17;;;2.08;;
20040;SDS011;10181;48.072;9.884;2023-07-28T09:59:40;2.67;;;2.38;;
20040;SDS011;10181;48.072;9.884;2023-07-28T10:02:07;2.20;;;2.10;;
20040;SDS011;10181;48.072;9.884;2023-07-28T10:04:33;2.13;;;2.03;;
20040;SDS011;10181;48.072;9.884;2023-07-28T10:06:59;2.38;;;2.28;;
20040;SDS011;10181;48.072;9.884;2023-07-28T10:09:27;1.88;;;1.77;;
20040;SDS011;10181;48.072;9.884;2023-07-28T10:11:55;2.00;;;1.90;;
20040;SDS011;10181;48.072;9.884;2023-07-28T10:14:30;1.90;;;1.80;;
20040;SDS011;10181;48.072;9.884;2023-07-28T10:17:00;2.38;;;2.28;;
20040;SDS011;10181;48.072;9.884;2023-07-28T10:19:29;2.17;;;1.98;;
20040;SDS011;10181;48.072;9.884;2023-07-28T10:21:59;2.10;;;2.00;;
20040;SDS011;10181;48.072;9.884;2023-07-28T10:27:29;2.13;;;2.03;;
20040;SDS011;10181;48.072;9.884;2023-07-28T10:30:03;2.90;;;2.70;;
20040;SDS011;10181;48.072;9.884;2023-07-28T10:32:37;2.35;;;2.25;;
20040;SDS011;10181;48.072;9.884;2023-07-28T10:35:08;4.22;;;2.35;;
20040;SDS011;10181;48.072;9.884;2023-07-28T10:37:37;2.50;;;2.40;;
20040;SDS011;10181;48.072;9.884;2023-07-28T10:42:54;2.30;;;2.20;;
20040;SDS011;10181;48.072;9.884;2023-07-28T10:45:21;3.00;;;2.25;;
20040;SDS011;10181;48.072;9.884;2023-07-28T10:47:49;2.20;;;2.10;;
20040;SDS011;10181;48.072;9.884;2023-07-28T10:50:15;2.33;;;2.17;;
20040;SDS011;10181;48.072;9.884;2023-07-28T10:52:41;2.28;;;2.17;;
20040;SDS011;10181;48.072;9.884;2023-07-28T10:55:21;3.30;;;2.50;;
20040;SDS011;10181;48.072;9.884;2023-07-28T10:57:50;2.30;;;2.20;;
20040;SDS011;10181;48.072;9.884;2023-07-28T11:00:18;2.20;;;2.10;;
20040;SDS011;10181;48.072;9.884;2023-07-28T11:02:50;2.17;;;2.00;;
20040;SDS011;10181;48.072;9.884;2023-07-28T11:07:56;2.08;;;1.98;;
20040;SDS011;10181;48.072;9.884;2023-07-28T11:10:24;2.38;;;2.22;;
20040;SDS011;10181;48.072;9.884;2023-07-28T11:12:51;2.50;;;2.40;;
20040;SDS011;10181;48.072;9.884;2023-07-28T11:15:17;2.40;;;2.30;;
20040;SDS011;10181;48.072;9.884;2023-07-28T11:17:45;2.55;;;2.35;;
20040;SDS011;10181;48.072;9.884;2023-07-28T11:20:22;2.25;;;2.05;;
20040;SDS011;10181;48.072;9.884;2023-07-28T11:22:57;2.42;;;2.33;;
20040;SDS011;10181;48.072;9.884;2023-07-28T11:25:26;2.63;;;2.42;;
20040;SDS011;10181;48.072;9.884;2023-07-28T11:27:53;2.15;;;2.05;;
20040;SDS011;10181;48.072;9.884;2023-07-28T11:30:20;2.30;;;2.08;;
20040;SDS011;10181;48.072;9.884;2023-07-28T11:32:47;2.53;;;2.33;;
20040;SDS011;10181;48.072;9.884;2023-07-28T11:35:18;2.20;;;2.10;;
20040;SDS011;10181;48.072;9.884;2023-07-28T11:37:46;2.13;;;2.03;;
20040;SDS011;10181;48.072;9.884;2023-07-28T11:40:14;2.55;;;2.35;;
20040;SDS011;10181;48.072;9.884;2023-07-28T11:42:43;2.40;;;2.28;;
20040;SDS011;10181;48.072;9.884;2023-07-28T11:45:12;3.33;;;2.63;;
20040;SDS011;10181;48.072;9.884;2023-07-28T11:47:39;2.38;;;2.17;;
20040;SDS011;10181;48.072;9.884;2023-07-28T11:50:05;2.20;;;2.10;;
20040;SDS011;10181;48.072;9.884;2023-07-28T11:52:31;2.40;;;2.30;;
20040;SDS011;10181;48.072;9.884;2023-07-28T11:55:04;2.03;;;1.92;;
20040;SDS011;10181;48.072;9.884;2023-07-28T11:57:31;2.50;;;2.30;;
20040;SDS011;10181;48.072;9.884;2023-07-28T11:59:58;2.40;;;2.20;;
20040;SDS011;10181;48.072;9.884;2023-07-28T12:02:28;2.50;;;2.35;;
20040;SDS011;10181;48.072;9.884;2023-07-28T12:04:54;2.28;;;2.17;;
20040;SDS011;10181;48.072;9.884;2023-07-28T12:07:32;2.47;;;2.38;;
20040;SDS011;10181;48.072;9.884;2023-07-28T12:10:02;2.28;;;2.17;;
20040;SDS011;10181;48.072;9.884;2023-07-28T12:12:31;2.47;;;2.38;;
20040;SDS011;10181;48.072;9.884;2023-07-28T12:15:17;2.03;;;1.92;;
20040;SDS011;10181;48.072;9.884;2023-07-28T12:18:04;2.08;;;1.98;;
20040;SDS011;10181;48.072;9.884;2023-07-28T12:20:34;2.50;;;2.30;;
20040;SDS011;10181;48.072;9.884;2023-07-28T12:23:00;2.60;;;2.40;;
20040;SDS011;10181;48.072;9.884;2023-07-28T12:25:26;2.38;;;2.28;;
20040;SDS011;10181;48.072;9.884;2023-07-28T12:27:52;2.67;;;2.47;;
20040;SDS011;10181;48.072;9.884;2023-07-28T12:30:17;3.25;;;2.55;;
20040;SDS011;10181;48.072;9.884;2023-07-28T12:32:43;2.50;;;2.40;;
20040;SDS011;10181;48.072;9.884;2023-07-28T12:35:09;4.10;;;2.20;;
20040;SDS011;10181;48.072;9.884;2023-07-28T12:37:35;2.55;;;2.45;;
20040;SDS011;10181;48.072;9.884;2023-07-28T12:40:00;2.50;;;2.30;;
20040;SDS011;10181;48.072;9.884;2023-07-28T12:42:26;2.35;;;2.20;;
20040;SDS011;10181;48.072;9.884;2023-07-28T12:44:52;2.45;;;2.30;;
20040;SDS011;10181;48.072;9.884;2023-07-28T12:47:17;2.90;;;2.70;;
20040;SDS011;10181;48.072;9.884;2023-07-28T12:49:43;2.60;;;2.33;;
20040;SDS011;10181;48.072;9.884;2023-07-28T12:52:09;2.20;;;2.10;;
20040;SDS011;10181;48.072;9.884;2023-07-28T12:54:34;2.45;;;2.22;;
20040;SDS011;10181;48.072;9.884;2023-07-28T12:57:00;2.53;;;2.33;;
20040;SDS011;10181;48.072;9.884;2023-07-28T12:59:26;2.20;;;2.10;;
20040;SDS011;10181;48.072;9.884;2023-07-28T13:01:53;2.53;;;2.40;;
20040;SDS011;10181;48.072;9.884;2023-07-28T13:04:19;2.60;;;2.50;;
20040;SDS011;10181;48.072;9.884;2023-07-28T13:06:44;2.50;;;2.40;;
20040;SDS011;10181;48.072;9.884;2023-07-28T13:09:10;2.53;;;2.33;;
20040;SDS011;10181;48.072;9.884;2023-07-28T13:11:36;2.60;;;2.50;;
20040;SDS011;10181;48.072;9.884;2023-07-28T13:14:02;2.22;;;2.13;;
20040;SDS011;10181;48.072;9.884;2023-07-28T13:16:28;2.80;;;2.60;;
20040;SDS011;10181;48.072;9.884;2023-07-28T13:18:53;2.10;;;2.00;;
20040;SDS011;10181;48.072;9.884;2023-07-28T13:21:19;3.17;;;2.20;;
20040;SDS011;10181;48.072;9.884;2023-07-28T13:23:44;2.45;;;2.35;;
20040;SDS011;10181;48.072;9.884;2023-07-28T13:26:10;2.40;;;2.30;;
20040;SDS011;10181;48.072;9.884;2023-07-28T13:28:36;2.50;;;2.40;;
20040;SDS011;10181;48.072;9.884;2023-07-28T13:31:02;2.63;;;2.53;;
20040;SDS011;10181;48.072;9.884;2023-07-28T13:33:29;2.40;;;2.30;;
20040;SDS011;10181;48.072;9.884;2023-07-28T13:35:55;2.72;;;2.53;;
20040;SDS011;10181;48.072;9.884;2023-07-28T13:38:21;2.35;;;2.22;;
20040;SDS011;10181;48.072;9.884;2023-07-28T13:40:46;2.47;;;2.30;;
20040;SDS011;10181;48.072;9.884;2023-07-28T13:43:12;2.30;;;2.20;;
20040;SDS011;10181;48.072;9.884;2023-07-28T13:45:37;2.50;;;2.40;;
20040;SDS011;10181;48.072;9.884;2023-07-28T13:48:03;2.40;;;2.20;;
20040;SDS011;10181;48.072;9.884;2023-07-28T13:50:29;2.22;;;2.13;;
20040;SDS011;10181;48.072;9.884;2023-07-28T13:52:55;2.50;;;2.30;;
20040;SDS011;10181;48.072;9.884;2023-07-28T13:55:20;1.85;;;1.75;;
20040;SDS011;10181;48.072;9.884;2023-07-28T13:57:46;2.67;;;2.47;;
20040;SDS011;10181;48.072;9.884;2023-07-28T14:00:12;2.20;;;2.05;;
20040;SDS011;10181;48.072;9.884;2023-07-28T14:02:38;2.35;;;2.25;;
20040;SDS011;10181;48.072;9.884;2023-07-28T14:05:04;2.63;;;2.42;;
20040;SDS011;10181;48.072;9.884;2023-07-28T14:07:31;2.45;;;2.30;;
20040;SDS011;10181;48.072;9.884;2023-07-28T14:09:57;2.60;;;2.40;;
20040;SDS011;10181;48.072;9.884;2023-07-28T14:12:22;2.40;;;2.30;;
20040;SDS011;10181;48.072;9.884;2023-07-28T14:14:48;4.65;;;2.92;;
20040;SDS011;10181;48.072;9.884;2023-07-28T14:17:15;3.28;;;2.63;;
20040;SDS011;10181;48.072;9.884;2023-07-28T14:19:40;3.13;;;2.85;;
20040;SDS011;10181;48.072;9.884;2023-07-28T14:22:06;4.25;;;3.17;;
20040;SDS011;10181;48.072;9.884;2023-07-28T14:24:32;3.80;;;2.97;;
20040;SDS011;10181;48.072;9.884;2023-07-28T14:26:58;2.80;;;2.60;;
20040;SDS011;10181;48.072;9.884;2023-07-28T14:29:24;3.55;;;3.25;;
20040;SDS011;10181;48.072;9.884;2023-07-28T14:31:49;3.72;;;3.42;;
20040;SDS011;10181;48.072;9.884;2023-07-28T14:34:15;3.67;;;3.38;;
20040;SDS011;10181;48.072;9.884;2023-07-28T14:36:41;3.45;;;3.20;;
20040;SDS011;10181;48.072;9.884;2023-07-28T14:39:06;3.85;;;2.72;;
20040;SDS011;10181;48.072;9.884;2023-07-28T14:41:32;3.95;;;3.35;;
20040;SDS011;10181;48.072;9.884;2023-07-28T14:43:58;3.25;;;3.05;;
20040;SDS011;10181;48.072;9.884;2023-07-28T14:46:24;3.78;;;3.47;;
20040;SDS011;10181;48.072;9.884;2023-07-28T14:48:50;4.22;;;3.25;;
20040;SDS011;10181;48.072;9.884;2023-07-28T14:51:17;3.80;;;3.50;;
20040;SDS011;10181;48.072;9.884;2023-07-28T14:53:42;5.05;;;3.72;;
20040;SDS011;10181;48.072;9.884;2023-07-28T14:56:10;4.70;;;4.20;;
20040;SDS011;10181;48.072;9.884;2023-07-28T14:58:36;3.80;;;3.50;;
20040;SDS011;10181;48.072;9.884;2023-07-28T15:01:02;3.78;;;3.50;;
20040;SDS011;10181;48.072;9.884;2023-07-28T15:03:30;4.07;;;3.67;;